sensor_id;sensor_type;location;lat;lon;timestamp;P1;durP1;ratioP1;P2;durP2;ratioP2
78893;SDS011;68282;42.698;23.350;2024-03-08T00:02:15;3.28;;;1.90;;
78893;SDS011;68282;42.698;23.350;2024-03-08T00:04:41;2.20;;;1.50;;
78893;SDS011;68282;42.698;23.350;2024-03-08T00:07:08;4.53;;;2.08;;
78893;SDS011;68282;42.698;23.350;2024-03-08T00:09:41;3.25;;;1.90;;
78893;SDS011;68282;42.698;23.350;2024-03-08T00:12:07;10.50;;;4.82;;
78893;SDS011;68282;42.698;23.350;2024-03-08T00:14:32;8.77;;;4.07;;
78893;SDS011;68282;42.698;23.350;2024-03-08T00:16:58;4.45;;;2.72;;
78893;SDS011;68282;42.698;23.350;2024-03-08T00:19:25;5.38;;;2.45;;
78893;SDS011;68282;42.698;23.350;2024-03-08T00:21:50;4.10;;;2.05;;
78893;SDS011;68282;42.698;23.350;2024-03-08T00:24:16;4.68;;;2.15;;
78893;SDS011;68282;42.698;23.350;2024-03-08T00:26:49;3.78;;;1.95;;
78893;SDS011;68282;42.698;23.350;2024-03-08T00:29:14;3.97;;;1.73;;
78893;SDS011;68282;42.698;23.350;2024-03-08T00:31:40;2.33;;;1.23;;
78893;SDS011;68282;42.698;23.350;2024-03-08T00:34:06;3.22;;;1.55;;
78893;SDS011;68282;42.698;23.350;2024-03-08T00:36:31;1.88;;;1.30;;
78893;SDS011;68282;42.698;23.350;2024-03-08T00:38:57;1.08;;;0.80;;
78893;SDS011;68282;42.698;23.350;2024-03-08T00:41:23;1.17;;;1.00;;
78893;SDS011;68282;42.698;23.350;2024-03-08T00:43:51;2.22;;;1.33;;
78893;SDS011;68282;42.698;23.350;2024-03-08T00:46:16;1.73;;;1.30;;
78893;SDS011;68282;42.698;23.350;2024-03-08T00:48:45;1.77;;;1.10;;
78893;SDS011;68282;42.698;23.350;2024-03-08T00:51:12;1.50;;;1.25;;
78893;SDS011;68282;42.698;23.350;2024-03-08T00:53:41;1.63;;;0.98;;
78893;SDS011;68282;42.698;23.350;2024-03-08T00:56:08;1.80;;;1.17;;
78893;SDS011;68282;42.698;23.350;2024-03-08T00:58:38;1.80;;;1.10;;
78893;SDS011;68282;42.698;23.350;2024-03-08T01:01:05;1.55;;;1.02;;
78893;SDS011;68282;42.698;23.350;2024-03-08T01:03:31;1.98;;;1.10;;
78893;SDS011;68282;42.698;23.350;2024-03-08T01:05:57;1.20;;;1.00;;
78893;SDS011;68282;42.698;23.350;2024-03-08T01:08:22;1.60;;;1.00;;
78893;SDS011;68282;42.698;23.350;2024-03-08T01:10:48;1.58;;;0.90;;
78893;SDS011;68282;42.698;23.350;2024-03-08T01:13:15;2.92;;;1.20;;
78893;SDS011;68282;42.698;23.350;2024-03-08T01:15:41;1.85;;;1.30;;
78893;SDS011;68282;42.698;23.350;2024-03-08T01:18:07;2.53;;;1.23;;
78893;SDS011;68282;42.698;23.350;2024-03-08T01:20:32;1.58;;;1.13;;
78893;SDS011;68282;42.698;23.350;2024-03-08T01:22:58;1.63;;;1.20;;
78893;SDS011;68282;42.698;23.350;2024-03-08T01:25:23;1.70;;;1.05;;
78893;SDS011;68282;42.698;23.350;2024-03-08T01:27:49;3.38;;;1.60;;
78893;SDS011;68282;42.698;23.350;2024-03-08T01:30:15;1.83;;;1.20;;
78893;SDS011;68282;42.698;23.350;2024-03-08T01:32:42;1.85;;;1.35;;
78893;SDS011;68282;42.698;23.350;2024-03-08T01:35:09;2.28;;;1.48;;
78893;SDS011;68282;42.698;23.350;2024-03-08T01:37:35;1.80;;;1.30;;
78893;SDS011;68282;42.698;23.350;2024-03-08T01:40:01;2.05;;;1.13;;
78893;SDS011;68282;42.698;23.350;2024-03-08T01:42:28;2.30;;;1.55;;
78893;SDS011;68282;42.698;23.350;2024-03-08T01:44:53;2.00;;;1.50;;
78893;SDS011;68282;42.698;23.350;2024-03-08T01:47:19;2.40;;;1.30;;
78893;SDS011;68282;42.698;23.350;2024-03-08T01:49:48;1.88;;;1.30;;
78893;SDS011;68282;42.698;23.350;2024-03-08T01:52:15;3.25;;;1.40;;
78893;SDS011;68282;42.698;23.350;2024-03-08T01:54:41;1.83;;;1.20;;
78893;SDS011;68282;42.698;23.350;2024-03-08T01:57:07;3.10;;;1.95;;
78893;SDS011;68282;42.698;23.350;2024-03-08T01:59:33;1.98;;;1.10;;
78893;SDS011;68282;42.698;23.350;2024-03-08T02:02:00;2.33;;;1.40;;
78893;SDS011;68282;42.698;23.350;2024-03-08T02:04:28;2.20;;;1.40;;
78893;SDS011;68282;42.698;23.350;2024-03-08T02:06:55;2.00;;;1.35;;
78893;SDS011;68282;42.698;23.350;2024-03-08T02:09:23;3.17;;;2.10;;
78893;SDS011;68282;42.698;23.350;2024-03-08T02:11:50;2.55;;;1.50;;
78893;SDS011;68282;42.698;23.350;2024-03-08T02:14:16;2.35;;;1.55;;
78893;SDS011;68282;42.698;23.350;2024-03-08T02:16:43;2.50;;;1.60;;
78893;SDS011;68282;42.698;23.350;2024-03-08T02:19:09;2.55;;;1.50;;
78893;SDS011;68282;42.698;23.350;2024-03-08T02:21:35;4.60;;;1.67;;
78893;SDS011;68282;42.698;23.350;2024-03-08T02:24:01;3.65;;;1.85;;
78893;SDS011;68282;42.698;23.350;2024-03-08T02:26:27;3.25;;;1.98;;
78893;SDS011;68282;42.698;23.350;2024-03-08T02:28:53;2.50;;;1.83;;
78893;SDS011;68282;42.698;23.350;2024-03-08T02:31:19;2.05;;;1.50;;
78893;SDS011;68282;42.698;23.350;2024-03-08T02:33:45;2.92;;;1.60;;
78893;SDS011;68282;42.698;23.350;2024-03-08T02:36:12;2.38;;;1.70;;
78893;SDS011;68282;42.698;23.350;2024-03-08T02:38:38;2.58;;;1.55;;
78893;SDS011;68282;42.698;23.350;2024-03-08T02:41:06;2.72;;;1.63;;
78893;SDS011;68282;42.698;23.350;2024-03-08T02:43:33;2.85;;;1.42;;
78893;SDS011;68282;42.698;23.350;2024-03-08T02:45:59;1.58;;;1.20;;
78893;SDS011;68282;42.698;23.350;2024-03-08T02:48:25;3.20;;;1.30;;
78893;SDS011;68282;42.698;23.350;2024-03-08T02:50:50;1.38;;;1.02;;
78893;SDS011;68282;42.698;23.350;2024-03-08T02:53:17;1.25;;;1.02;;
78893;SDS011;68282;42.698;23.350;2024-03-08T02:55:44;1.77;;;1.05;;
78893;SDS011;68282;42.698;23.350;2024-03-08T02:58:10;1.00;;;0.90;;
78893;SDS011;68282;42.698;23.350;2024-03-08T03:00:36;1.25;;;0.88;;
78893;SDS011;68282;42.698;23.350;2024-03-08T03:03:02;1.33;;;1.15;;
78893;SDS011;68282;42.698;23.350;2024-03-08T03:05:28;1.77;;;1.13;;
78893;SDS011;68282;42.698;23.350;2024-03-08T03:07:55;1.00;;;0.90;;
78893;SDS011;68282;42.698;23.350;2024-03-08T03:10:20;1.95;;;1.02;;
78893;SDS011;68282;42.698;23.350;2024-03-08T03:12:47;1.80;;;0.90;;
78893;SDS011;68282;42.698;23.350;2024-03-08T03:15:16;4.32;;;2.33;;
78893;SDS011;68282;42.698;23.350;2024-03-08T03:17:49;4.43;;;2.08;;
78893;SDS011;68282;42.698;23.350;2024-03-08T03:22:57;1.85;;;1.00;;
78893;SDS011;68282;42.698;23.350;2024-03-08T03:25:26;1.50;;;1.00;;
78893;SDS011;68282;42.698;23.350;2024-03-08T03:27:54;2.95;;;1.30;;
78893;SDS011;68282;42.698;23.350;2024-03-08T03:30:23;2.08;;;1.08;;
78893;SDS011;68282;42.698;23.350;2024-03-08T03:32:51;1.65;;;0.98;;
78893;SDS011;68282;42.698;23.350;2024-03-08T03:35:19;2.67;;;1.25;;
78893;SDS011;68282;42.698;23.350;2024-03-08T03:37:49;2.10;;;1.40;;
78893;SDS011;68282;42.698;23.350;2024-03-08T03:40:33;3.25;;;1.40;;
78893;SDS011;68282;42.698;23.350;2024-03-08T03:42:59;2.47;;;1.30;;
78893;SDS011;68282;42.698;23.350;2024-03-08T03:45:26;2.03;;;1.25;;
78893;SDS011;68282;42.698;23.350;2024-03-08T03:47:52;2.85;;;1.42;;
78893;SDS011;68282;42.698;23.350;2024-03-08T03:50:17;1.92;;;1.10;;
78893;SDS011;68282;42.698;23.350;2024-03-08T03:52:47;1.30;;;0.88;;
78893;SDS011;68282;42.698;23.350;2024-03-08T03:55:13;1.70;;;1.33;;
78893;SDS011;68282;42.698;23.350;2024-03-08T03:57:39;3.42;;;1.60;;
78893;SDS011;68282;42.698;23.350;2024-03-08T04:00:06;2.20;;;1.60;;
78893;SDS011;68282;42.698;23.350;2024-03-08T04:02:35;2.67;;;1.35;;
78893;SDS011;68282;42.698;23.350;2024-03-08T04:07:30;2.05;;;1.23;;
78893;SDS011;68282;42.698;23.350;2024-03-08T04:09:56;1.88;;;1.33;;
78893;SDS011;68282;42.698;23.350;2024-03-08T04:12:22;5.40;;;2.85;;
78893;SDS011;68282;42.698;23.350;2024-03-08T04:14:48;4.43;;;2.50;;
78893;SDS011;68282;42.698;23.350;2024-03-08T04:17:13;8.18;;;4.18;;
78893;SDS011;68282;42.698;23.350;2024-03-08T04:19:39;2.78;;;1.70;;
78893;SDS011;68282;42.698;23.350;2024-03-08T04:22:05;3.15;;;1.92;;
78893;SDS011;68282;42.698;23.350;2024-03-08T04:24:32;2.40;;;1.63;;
78893;SDS011;68282;42.698;23.350;2024-03-08T04:26:58;2.13;;;1.52;;
78893;SDS011;68282;42.698;23.350;2024-03-08T04:29:24;1.88;;;1.45;;
78893;SDS011;68282;42.698;23.350;2024-03-08T04:31:49;3.17;;;1.95;;
78893;SDS011;68282;42.698;23.350;2024-03-08T04:36:48;2.80;;;1.70;;
78893;SDS011;68282;42.698;23.350;2024-03-08T04:39:13;3.95;;;2.20;;
78893;SDS011;68282;42.698;23.350;2024-03-08T04:41:40;3.40;;;1.98;;
78893;SDS011;68282;42.698;23.350;2024-03-08T04:44:08;4.60;;;2.10;;
78893;SDS011;68282;42.698;23.350;2024-03-08T04:46:35;3.25;;;2.08;;
78893;SDS011;68282;42.698;23.350;2024-03-08T04:49:01;3.92;;;2.20;;
78893;SDS011;68282;42.698;23.350;2024-03-08T04:51:26;2.83;;;1.83;;
78893;SDS011;68282;42.698;23.350;2024-03-08T04:53:52;2.88;;;1.55;;
78893;SDS011;68282;42.698;23.350;2024-03-08T04:56:19;3.95;;;2.00;;
78893;SDS011;68282;42.698;23.350;2024-03-08T04:58:45;1.85;;;1.30;;
78893;SDS011;68282;42.698;23.350;2024-03-08T05:01:13;3.03;;;1.70;;
78893;SDS011;68282;42.698;23.350;2024-03-08T05:03:39;2.90;;;1.60;;
78893;SDS011;68282;42.698;23.350;2024-03-08T05:06:05;2.53;;;1.67;;
78893;SDS011;68282;42.698;23.350;2024-03-08T05:08:31;3.45;;;2.05;;
78893;SDS011;68282;42.698;23.350;2024-03-08T05:10:56;5.55;;;2.22;;
78893;SDS011;68282;42.698;23.350;2024-03-08T05:13:22;4.47;;;2.35;;
78893;SDS011;68282;42.698;23.350;2024-03-08T05:15:51;2.80;;;1.85;;
78893;SDS011;68282;42.698;23.350;2024-03-08T05:18:17;3.38;;;2.13;;
78893;SDS011;68282;42.698;23.350;2024-03-08T05:20:42;3.90;;;2.10;;
78893;SDS011;68282;42.698;23.350;2024-03-08T05:23:11;3.55;;;2.38;;
78893;SDS011;68282;42.698;23.350;2024-03-08T05:25:36;5.00;;;2.60;;
78893;SDS011;68282;42.698;23.350;2024-03-08T05:28:02;3.75;;;2.20;;
78893;SDS011;68282;42.698;23.350;2024-03-08T05:30:29;4.80;;;2.47;;
78893;SDS011;68282;42.698;23.350;2024-03-08T05:32:54;4.13;;;2.38;;
78893;SDS011;68282;42.698;23.350;2024-03-08T05:35:20;4.80;;;2.80;;
78893;SDS011;68282;42.698;23.350;2024-03-08T05:37:45;6.47;;;2.92;;
78893;SDS011;68282;42.698;23.350;2024-03-08T05:40:11;4.57;;;2.60;;
78893;SDS011;68282;42.698;23.350;2024-03-08T05:42:36;5.82;;;2.33;;
78893;SDS011;68282;42.698;23.350;2024-03-08T05:45:03;5.25;;;2.75;;
78893;SDS011;68282;42.698;23.350;2024-03-08T05:47:29;5.35;;;2.70;;
78893;SDS011;68282;42.698;23.350;2024-03-08T05:49:54;5.95;;;3.00;;
78893;SDS011;68282;42.698;23.350;2024-03-08T05:52:23;5.93;;;3.15;;
78893;SDS011;68282;42.698;23.350;2024-03-08T05:54:48;5.47;;;3.28;;
78893;SDS011;68282;42.698;23.350;2024-03-08T05:57:14;5.80;;;3.40;;
78893;SDS011;68282;42.698;23.350;2024-03-08T05:59:39;5.47;;;3.28;;
78893;SDS011;68282;42.698;23.350;2024-03-08T06:02:05;10.93;;;3.95;;
78893;SDS011;68282;42.698;23.350;2024-03-08T06:04:31;11.20;;;5.20;;
78893;SDS011;68282;42.698;23.350;2024-03-08T06:06:57;7.63;;;3.97;;
78893;SDS011;68282;42.698;23.350;2024-03-08T06:09:23;7.38;;;3.38;;
78893;SDS011;68282;42.698;23.350;2024-03-08T06:11:50;5.35;;;2.80;;
78893;SDS011;68282;42.698;23.350;2024-03-08T06:14:16;5.50;;;3.13;;
78893;SDS011;68282;42.698;23.350;2024-03-08T06:16:45;6.45;;;3.47;;
78893;SDS011;68282;42.698;23.350;2024-03-08T06:19:11;6.07;;;3.38;;
78893;SDS011;68282;42.698;23.350;2024-03-08T06:21:37;5.03;;;2.90;;
78893;SDS011;68282;42.698;23.350;2024-03-08T06:24:03;5.35;;;3.25;;
78893;SDS011;68282;42.698;23.350;2024-03-08T06:26:29;5.22;;;3.47;;
78893;SDS011;68282;42.698;23.350;2024-03-08T06:28:54;6.47;;;3.63;;
78893;SDS011;68282;42.698;23.350;2024-03-08T06:31:20;4.82;;;3.30;;
78893;SDS011;68282;42.698;23.350;2024-03-08T06:33:46;6.55;;;3.42;;
78893;SDS011;68282;42.698;23.350;2024-03-08T06:36:16;7.00;;;3.60;;
78893;SDS011;68282;42.698;23.350;2024-03-08T06:38:44;6.43;;;3.33;;
78893;SDS011;68282;42.698;23.350;2024-03-08T06:44:33;5.30;;;2.72;;
78893;SDS011;68282;42.698;23.350;2024-03-08T06:46:59;10.05;;;3.33;;
78893;SDS011;68282;42.698;23.350;2024-03-08T06:49:34;5.93;;;3.08;;
78893;SDS011;68282;42.698;23.350;2024-03-08T06:52:00;6.20;;;3.28;;
78893;SDS011;68282;42.698;23.350;2024-03-08T06:54:27;5.68;;;3.42;;
78893;SDS011;68282;42.698;23.350;2024-03-08T06:56:52;5.03;;;3.30;;
78893;SDS011;68282;42.698;23.350;2024-03-08T06:59:18;4.47;;;2.67;;
78893;SDS011;68282;42.698;23.350;2024-03-08T07:01:44;6.72;;;3.60;;
78893;SDS011;68282;42.698;23.350;2024-03-08T07:04:11;4.30;;;3.00;;
78893;SDS011;68282;42.698;23.350;2024-03-08T07:06:37;4.88;;;3.05;;
78893;SDS011;68282;42.698;23.350;2024-03-08T07:09:03;5.82;;;3.47;;
78893;SDS011;68282;42.698;23.350;2024-03-08T07:11:28;8.50;;;3.65;;
78893;SDS011;68282;42.698;23.350;2024-03-08T07:13:54;8.77;;;5.10;;
78893;SDS011;68282;42.698;23.350;2024-03-08T07:16:19;5.78;;;3.45;;
78893;SDS011;68282;42.698;23.350;2024-03-08T07:18:49;8.98;;;4.03;;
78893;SDS011;68282;42.698;23.350;2024-03-08T07:21:17;5.68;;;3.50;;
78893;SDS011;68282;42.698;23.350;2024-03-08T07:23:44;5.32;;;3.13;;
78893;SDS011;68282;42.698;23.350;2024-03-08T07:28:45;6.93;;;2.97;;
78893;SDS011;68282;42.698;23.350;2024-03-08T07:31:12;6.88;;;3.53;;
78893;SDS011;68282;42.698;23.350;2024-03-08T07:33:52;8.10;;;3.78;;
78893;SDS011;68282;42.698;23.350;2024-03-08T07:36:21;5.75;;;3.42;;
78893;SDS011;68282;42.698;23.350;2024-03-08T07:38:48;7.32;;;3.05;;
78893;SDS011;68282;42.698;23.350;2024-03-08T07:41:15;5.75;;;3.25;;
78893;SDS011;68282;42.698;23.350;2024-03-08T07:43:41;6.07;;;3.25;;
78893;SDS011;68282;42.698;23.350;2024-03-08T07:46:09;4.45;;;2.70;;
78893;SDS011;68282;42.698;23.350;2024-03-08T07:48:35;8.23;;;4.38;;
78893;SDS011;68282;42.698;23.350;2024-03-08T07:51:02;15.02;;;6.75;;
78893;SDS011;68282;42.698;23.350;2024-03-08T07:53:30;8.05;;;3.97;;
78893;SDS011;68282;42.698;23.350;2024-03-08T07:55:56;5.75;;;2.97;;
78893;SDS011;68282;42.698;23.350;2024-03-08T07:58:22;5.05;;;3.10;;
78893;SDS011;68282;42.698;23.350;2024-03-08T08:00:48;3.85;;;2.78;;
78893;SDS011;68282;42.698;23.350;2024-03-08T08:03:14;5.55;;;3.15;;
78893;SDS011;68282;42.698;23.350;2024-03-08T08:05:41;4.30;;;2.67;;
78893;SDS011;68282;42.698;23.350;2024-03-08T08:08:22;4.03;;;2.55;;
78893;SDS011;68282;42.698;23.350;2024-03-08T08:10:54;4.15;;;2.47;;
78893;SDS011;68282;42.698;23.350;2024-03-08T08:13:20;4.05;;;2.72;;
78893;SDS011;68282;42.698;23.350;2024-03-08T08:15:46;2.53;;;1.90;;
78893;SDS011;68282;42.698;23.350;2024-03-08T08:18:11;6.55;;;2.40;;
78893;SDS011;68282;42.698;23.350;2024-03-08T08:20:39;3.85;;;2.20;;
78893;SDS011;68282;42.698;23.350;2024-03-08T08:23:04;2.88;;;1.90;;
78893;SDS011;68282;42.698;23.350;2024-03-08T08:25:31;3.65;;;2.40;;
78893;SDS011;68282;42.698;23.350;2024-03-08T08:27:59;4.15;;;2.65;;
78893;SDS011;68282;42.698;23.350;2024-03-08T08:30:25;6.55;;;2.40;;
78893;SDS011;68282;42.698;23.350;2024-03-08T08:32:50;3.65;;;2.20;;
78893;SDS011;68282;42.698;23.350;2024-03-08T08:35:18;4.93;;;2.53;;
78893;SDS011;68282;42.698;23.350;2024-03-08T08:37:44;4.28;;;2.42;;
78893;SDS011;68282;42.698;23.350;2024-03-08T08:40:10;4.03;;;2.50;;
78893;SDS011;68282;42.698;23.350;2024-03-08T08:42:39;4.80;;;2.97;;
78893;SDS011;68282;42.698;23.350;2024-03-08T08:45:05;5.50;;;3.03;;
78893;SDS011;68282;42.698;23.350;2024-03-08T08:50:00;4.88;;;2.40;;
78893;SDS011;68282;42.698;23.350;2024-03-08T08:52:26;3.30;;;2.25;;
78893;SDS011;68282;42.698;23.350;2024-03-08T08:54:52;9.20;;;5.85;;
78893;SDS011;68282;42.698;23.350;2024-03-08T08:57:17;10.13;;;7.20;;
78893;SDS011;68282;42.698;23.350;2024-03-08T08:59:43;12.85;;;8.13;;
78893;SDS011;68282;42.698;23.350;2024-03-08T09:02:08;22.60;;;13.27;;
78893;SDS011;68282;42.698;23.350;2024-03-08T09:04:34;49.63;;;30.65;;
78893;SDS011;68282;42.698;23.350;2024-03-08T09:07:01;42.22;;;27.17;;
78893;SDS011;68282;42.698;23.350;2024-03-08T09:09:26;12.82;;;8.60;;
78893;SDS011;68282;42.698;23.350;2024-03-08T09:11:52;3.42;;;2.47;;
78893;SDS011;68282;42.698;23.350;2024-03-08T09:14:19;3.33;;;2.20;;
78893;SDS011;68282;42.698;23.350;2024-03-08T09:16:45;4.50;;;1.92;;
78893;SDS011;68282;42.698;23.350;2024-03-08T09:19:12;3.20;;;2.13;;
78893;SDS011;68282;42.698;23.350;2024-03-08T09:21:38;2.63;;;1.85;;
78893;SDS011;68282;42.698;23.350;2024-03-08T09:24:05;4.05;;;2.35;;
78893;SDS011;68282;42.698;23.350;2024-03-08T09:26:31;6.30;;;3.38;;
78893;SDS011;68282;42.698;23.350;2024-03-08T09:28:58;3.42;;;1.88;;
78893;SDS011;68282;42.698;23.350;2024-03-08T09:31:24;3.65;;;2.38;;
78893;SDS011;68282;42.698;23.350;2024-03-08T09:33:51;4.15;;;2.65;;
78893;SDS011;68282;42.698;23.350;2024-03-08T09:36:17;5.45;;;2.83;;
78893;SDS011;68282;42.698;23.350;2024-03-08T09:38:43;4.80;;;2.92;;
78893;SDS011;68282;42.698;23.350;2024-03-08T09:41:09;3.95;;;2.28;;
78893;SDS011;68282;42.698;23.350;2024-03-08T09:43:35;3.60;;;2.22;;
78893;SDS011;68282;42.698;23.350;2024-03-08T09:46:03;3.63;;;2.08;;
78893;SDS011;68282;42.698;23.350;2024-03-08T09:48:40;3.70;;;1.80;;
78893;SDS011;68282;42.698;23.350;2024-03-08T09:51:10;4.07;;;2.17;;
78893;SDS011;68282;42.698;23.350;2024-03-08T09:53:40;4.10;;;2.50;;
78893;SDS011;68282;42.698;23.350;2024-03-08T09:56:07;5.55;;;2.47;;
78893;SDS011;68282;42.698;23.350;2024-03-08T09:58:33;2.75;;;1.70;;
78893;SDS011;68282;42.698;23.350;2024-03-08T10:00:59;4.10;;;2.08;;
78893;SDS011;68282;42.698;23.350;2024-03-08T10:03:29;5.43;;;2.20;;
78893;SDS011;68282;42.698;23.350;2024-03-08T10:05:57;3.60;;;2.10;;
78893;SDS011;68282;42.698;23.350;2024-03-08T10:08:29;5.05;;;2.55;;
78893;SDS011;68282;42.698;23.350;2024-03-08T10:10:56;3.50;;;2.00;;
78893;SDS011;68282;42.698;23.350;2024-03-08T10:13:25;5.05;;;2.63;;
78893;SDS011;68282;42.698;23.350;2024-03-08T10:15:52;2.60;;;1.55;;
78893;SDS011;68282;42.698;23.350;2024-03-08T10:18:18;3.72;;;1.67;;
78893;SDS011;68282;42.698;23.350;2024-03-08T10:20:44;4.03;;;2.20;;
78893;SDS011;68282;42.698;23.350;2024-03-08T10:23:09;3.50;;;2.20;;
78893;SDS011;68282;42.698;23.350;2024-03-08T10:25:35;3.92;;;2.17;;
78893;SDS011;68282;42.698;23.350;2024-03-08T10:28:04;2.72;;;1.80;;
78893;SDS011;68282;42.698;23.350;2024-03-08T10:30:31;3.83;;;2.30;;
78893;SDS011;68282;42.698;23.350;2024-03-08T10:32:57;3.90;;;2.45;;
78893;SDS011;68282;42.698;23.350;2024-03-08T10:35:23;3.85;;;2.13;;
78893;SDS011;68282;42.698;23.350;2024-03-08T10:37:52;2.78;;;1.90;;
78893;SDS011;68282;42.698;23.350;2024-03-08T10:40:24;2.92;;;1.90;;
78893;SDS011;68282;42.698;23.350;2024-03-08T10:42:51;2.97;;;1.80;;
78893;SDS011;68282;42.698;23.350;2024-03-08T10:45:40;4.22;;;2.45;;
78893;SDS011;68282;42.698;23.350;2024-03-08T10:50:56;1.83;;;1.40;;
78893;SDS011;68282;42.698;23.350;2024-03-08T10:53:23;4.07;;;1.60;;
78893;SDS011;68282;42.698;23.350;2024-03-08T10:55:52;2.92;;;1.70;;
78893;SDS011;68282;42.698;23.350;2024-03-08T10:58:20;2.65;;;1.80;;
78893;SDS011;68282;42.698;23.350;2024-03-08T11:00:47;3.83;;;1.65;;
78893;SDS011;68282;42.698;23.350;2024-03-08T11:06:29;2.72;;;1.70;;
78893;SDS011;68282;42.698;23.350;2024-03-08T11:09:27;2.38;;;1.70;;
78893;SDS011;68282;42.698;23.350;2024-03-08T11:14:47;3.05;;;1.45;;
78893;SDS011;68282;42.698;23.350;2024-03-08T11:17:59;1.98;;;1.40;;
78893;SDS011;68282;42.698;23.350;2024-03-08T11:20:03;2.25;;;1.38;;
78893;SDS011;68282;42.698;23.350;2024-03-08T11:22:40;4.15;;;1.60;;
78893;SDS011;68282;42.698;23.350;2024-03-08T11:25:10;3.22;;;1.55;;
78893;SDS011;68282;42.698;23.350;2024-03-08T11:28:07;6.70;;;2.92;;
78893;SDS011;68282;42.698;23.350;2024-03-08T11:30:41;9.63;;;4.30;;
78893;SDS011;68282;42.698;23.350;2024-03-08T11:33:13;3.60;;;2.28;;
78893;SDS011;68282;42.698;23.350;2024-03-08T11:35:41;3.30;;;1.40;;
78893;SDS011;68282;42.698;23.350;2024-03-08T11:38:11;2.35;;;1.40;;
78893;SDS011;68282;42.698;23.350;2024-03-08T11:40:38;2.35;;;1.20;;
78893;SDS011;68282;42.698;23.350;2024-03-08T11:43:05;3.45;;;1.40;;
78893;SDS011;68282;42.698;23.350;2024-03-08T11:45:33;2.00;;;1.45;;
78893;SDS011;68282;42.698;23.350;2024-03-08T11:48:03;3.30;;;1.55;;
78893;SDS011;68282;42.698;23.350;2024-03-08T11:50:30;2.50;;;1.50;;
78893;SDS011;68282;42.698;23.350;2024-03-08T11:53:02;2.42;;;1.40;;
78893;SDS011;68282;42.698;23.350;2024-03-08T11:55:29;2.78;;;1.40;;
78893;SDS011;68282;42.698;23.350;2024-03-08T11:58:03;1.33;;;0.98;;
78893;SDS011;68282;42.698;23.350;2024-03-08T12:00:29;2.08;;;1.30;;
78893;SDS011;68282;42.698;23.350;2024-03-08T12:03:07;2.05;;;1.45;;
78893;SDS011;68282;42.698;23.350;2024-03-08T12:05:37;1.90;;;1.38;;
78893;SDS011;68282;42.698;23.350;2024-03-08T12:08:03;2.67;;;1.60;;
78893;SDS011;68282;42.698;23.350;2024-03-08T12:10:32;1.95;;;1.40;;
78893;SDS011;68282;42.698;23.350;2024-03-08T12:12:58;2.90;;;1.55;;
78893;SDS011;68282;42.698;23.350;2024-03-08T12:15:25;2.15;;;1.30;;
78893;SDS011;68282;42.698;23.350;2024-03-08T12:17:53;2.20;;;1.38;;
78893;SDS011;68282;42.698;23.350;2024-03-08T12:20:21;2.95;;;1.60;;
78893;SDS011;68282;42.698;23.350;2024-03-08T12:22:50;2.47;;;1.77;;
78893;SDS011;68282;42.698;23.350;2024-03-08T12:25:27;2.78;;;1.80;;
78893;SDS011;68282;42.698;23.350;2024-03-08T12:27:56;2.20;;;1.40;;
78893;SDS011;68282;42.698;23.350;2024-03-08T12:30:24;4.63;;;2.00;;
78893;SDS011;68282;42.698;23.350;2024-03-08T12:33:11;3.35;;;1.50;;
78893;SDS011;68282;42.698;23.350;2024-03-08T12:35:37;2.33;;;1.52;;
78893;SDS011;68282;42.698;23.350;2024-03-08T12:38:03;2.45;;;1.60;;
78893;SDS011;68282;42.698;23.350;2024-03-08T12:40:32;2.45;;;1.42;;
78893;SDS011;68282;42.698;23.350;2024-03-08T12:42:59;6.82;;;1.63;;
78893;SDS011;68282;42.698;23.350;2024-03-08T12:45:26;3.13;;;1.50;;
78893;SDS011;68282;42.698;23.350;2024-03-08T12:47:52;3.72;;;1.95;;
78893;SDS011;68282;42.698;23.350;2024-03-08T12:50:19;3.35;;;1.52;;
78893;SDS011;68282;42.698;23.350;2024-03-08T12:52:46;2.50;;;1.50;;
78893;SDS011;68282;42.698;23.350;2024-03-08T12:55:12;1.52;;;1.17;;
78893;SDS011;68282;42.698;23.350;2024-03-08T12:57:38;2.65;;;1.40;;
78893;SDS011;68282;42.698;23.350;2024-03-08T13:00:04;2.42;;;1.48;;
78893;SDS011;68282;42.698;23.350;2024-03-08T13:02:30;1.90;;;1.27;;
78893;SDS011;68282;42.698;23.350;2024-03-08T13:04:57;2.22;;;1.30;;
78893;SDS011;68282;42.698;23.350;2024-03-08T13:07:24;2.47;;;1.55;;
78893;SDS011;68282;42.698;23.350;2024-03-08T13:09:53;2.67;;;1.45;;
78893;SDS011;68282;42.698;23.350;2024-03-08T13:12:23;2.05;;;1.33;;
78893;SDS011;68282;42.698;23.350;2024-03-08T13:14:50;2.15;;;1.27;;
78893;SDS011;68282;42.698;23.350;2024-03-08T13:17:16;2.03;;;1.17;;
78893;SDS011;68282;42.698;23.350;2024-03-08T13:19:46;2.50;;;1.33;;
78893;SDS011;68282;42.698;23.350;2024-03-08T13:22:11;2.58;;;1.30;;
78893;SDS011;68282;42.698;23.350;2024-03-08T13:24:40;4.22;;;1.65;;
78893;SDS011;68282;42.698;23.350;2024-03-08T13:27:08;2.10;;;1.60;;
78893;SDS011;68282;42.698;23.350;2024-03-08T13:29:48;2.58;;;1.85;;
78893;SDS011;68282;42.698;23.350;2024-03-08T13:32:14;2.22;;;1.50;;
78893;SDS011;68282;42.698;23.350;2024-03-08T13:34:42;2.35;;;1.40;;
78893;SDS011;68282;42.698;23.350;2024-03-08T13:37:09;1.83;;;1.23;;
78893;SDS011;68282;42.698;23.350;2024-03-08T13:39:41;1.75;;;1.10;;
78893;SDS011;68282;42.698;23.350;2024-03-08T13:42:09;2.38;;;1.40;;
78893;SDS011;68282;42.698;23.350;2024-03-08T13:44:38;3.15;;;1.52;;
78893;SDS011;68282;42.698;23.350;2024-03-08T13:47:13;2.53;;;1.70;;
78893;SDS011;68282;42.698;23.350;2024-03-08T13:49:40;3.22;;;1.50;;
78893;SDS011;68282;42.698;23.350;2024-03-08T13:52:05;2.53;;;1.67;;
78893;SDS011;68282;42.698;23.350;2024-03-08T13:54:33;2.22;;;1.48;;
78893;SDS011;68282;42.698;23.350;2024-03-08T13:57:00;2.33;;;1.45;;
78893;SDS011;68282;42.698;23.350;2024-03-08T13:59:28;2.65;;;1.50;;
78893;SDS011;68282;42.698;23.350;2024-03-08T14:01:55;4.20;;;1.35;;
78893;SDS011;68282;42.698;23.350;2024-03-08T14:04:22;4.85;;;1.75;;
78893;SDS011;68282;42.698;23.350;2024-03-08T14:06:52;3.22;;;2.47;;
78893;SDS011;68282;42.698;23.350;2024-03-08T14:09:22;3.17;;;1.92;;
78893;SDS011;68282;42.698;23.350;2024-03-08T14:11:54;2.90;;;1.60;;
78893;SDS011;68282;42.698;23.350;2024-03-08T14:14:23;5.22;;;2.17;;
78893;SDS011;68282;42.698;23.350;2024-03-08T14:16:49;3.60;;;2.22;;
78893;SDS011;68282;42.698;23.350;2024-03-08T14:19:19;4.10;;;2.25;;
78893;SDS011;68282;42.698;23.350;2024-03-08T14:21:45;4.38;;;2.10;;
78893;SDS011;68282;42.698;23.350;2024-03-08T14:24:13;3.40;;;1.90;;
78893;SDS011;68282;42.698;23.350;2024-03-08T14:26:42;3.22;;;1.70;;
78893;SDS011;68282;42.698;23.350;2024-03-08T14:29:08;2.50;;;1.70;;
78893;SDS011;68282;42.698;23.350;2024-03-08T14:31:35;2.85;;;1.70;;
78893;SDS011;68282;42.698;23.350;2024-03-08T14:34:01;3.33;;;1.90;;
78893;SDS011;68282;42.698;23.350;2024-03-08T14:36:28;3.00;;;1.73;;
78893;SDS011;68282;42.698;23.350;2024-03-08T14:38:54;2.97;;;1.88;;
78893;SDS011;68282;42.698;23.350;2024-03-08T14:41:25;3.30;;;1.90;;
78893;SDS011;68282;42.698;23.350;2024-03-08T14:43:52;3.55;;;2.08;;
78893;SDS011;68282;42.698;23.350;2024-03-08T14:46:18;3.90;;;1.92;;
78893;SDS011;68282;42.698;23.350;2024-03-08T14:48:52;7.28;;;2.50;;
78893;SDS011;68282;42.698;23.350;2024-03-08T14:51:18;4.13;;;2.50;;
78893;SDS011;68282;42.698;23.350;2024-03-08T14:53:52;4.38;;;2.13;;
78893;SDS011;68282;42.698;23.350;2024-03-08T14:56:19;3.88;;;2.33;;
78893;SDS011;68282;42.698;23.350;2024-03-08T14:58:45;2.80;;;1.85;;
78893;SDS011;68282;42.698;23.350;2024-03-08T15:01:14;3.15;;;2.10;;